sensor_id;sensor_type;location;lat;lon;timestamp;pressure;altitude;pressure_sealevel;temperature;humidity
55460;BME280;41326;45.302;-122.946;2023-03-01T00:01:08;99731.81;;;17.41;48.45
55460;BME280;41326;45.302;-122.946;2023-03-01T00:03:37;99735.94;;;17.35;48.61
55460;BME280;41326;45.302;-122.946;2023-03-01T00:06:08;99743.18;;;17.31;48.78
55460;BME280;41326;45.302;-122.946;2023-03-01T00:08:38;99747.05;;;17.24;48.97
55460;BME280;41326;45.302;-122.946;2023-03-01T00:11:11;99748.26;;;17.20;49.15
55460;BME280;41326;45.302;-122.946;2023-03-01T00:13:39;99753.07;;;17.10;49.54
55460;BME280;41326;45.302;-122.946;2023-03-01T00:16:10;99754.81;;;17.08;49.87
55460;BME280;41326;45.302;-122.946;2023-03-01T00:18:40;99757.31;;;17.08;50.00
55460;BME280;41326;45.302;-122.946;2023-03-01T00:21:09;99760.34;;;17.07;50.17
55460;BME280;41326;45.302;-122.946;2023-03-01T00:23:40;99762.20;;;17.07;50.23
55460;BME280;41326;45.302;-122.946;2023-03-01T00:26:13;99767.02;;;17.09;50.27
55460;BME280;41326;45.302;-122.946;2023-03-01T00:28:41;99772.22;;;17.05;50.60
55460;BME280;41326;45.302;-122.946;2023-03-01T00:31:12;99778.39;;;17.08;50.42
55460;BME280;41326;45.302;-122.946;2023-03-01T00:33:42;99781.21;;;17.22;49.79
55460;BME280;41326;45.302;-122.946;2023-03-01T00:36:12;99780.69;;;17.42;49.36
55460;BME280;41326;45.302;-122.946;2023-03-01T00:38:43;99780.98;;;17.68;48.55
55460;BME280;41326;45.302;-122.946;2023-03-01T00:41:14;99784.63;;;17.89;47.96
55460;BME280;41326;45.302;-122.946;2023-03-01T00:43:43;99788.66;;;18.03;47.46
55460;BME280;41326;45.302;-122.946;2023-03-01T00:46:15;99794.54;;;17.95;47.74
55460;BME280;41326;45.302;-122.946;2023-03-01T00:48:43;99800.49;;;17.79;48.12
55460;BME280;41326;45.302;-122.946;2023-03-01T00:51:16;99806.82;;;17.70;48.31
55460;BME280;41326;45.302;-122.946;2023-03-01T00:53:44;99806.71;;;17.82;48.05
55460;BME280;41326;45.302;-122.946;2023-03-01T00:56:16;99810.12;;;18.01;47.74
55460;BME280;41326;45.302;-122.946;2023-03-01T00:58:45;99815.04;;;18.25;47.07
55460;BME280;41326;45.302;-122.946;2023-03-01T01:01:16;99817.34;;;18.40;46.66
55460;BME280;41326;45.302;-122.946;2023-03-01T01:03:46;99812.69;;;18.52;46.41
55460;BME280;41326;45.302;-122.946;2023-03-01T01:06:20;99819.71;;;18.69;46.23
55460;BME280;41326;45.302;-122.946;2023-03-01T01:08:46;99826.86;;;18.75;46.01
55460;BME280;41326;45.302;-122.946;2023-03-01T01:11:16;99829.02;;;18.83;45.95
55460;BME280;41326;45.302;-122.946;2023-03-01T01:13:47;99835.47;;;18.94;45.83
55460;BME280;41326;45.302;-122.946;2023-03-01T01:16:17;99837.74;;;18.98;45.67
55460;BME280;41326;45.302;-122.946;2023-03-01T01:18:46;99841.22;;;18.85;46.07
55460;BME280;41326;45.302;-122.946;2023-03-01T01:21:19;99846.65;;;18.65;46.66
55460;BME280;41326;45.302;-122.946;2023-03-01T01:23:49;99853.35;;;18.55;46.93
55460;BME280;41326;45.302;-122.946;2023-03-01T01:26:20;99858.82;;;18.69;46.54
55460;BME280;41326;45.302;-122.946;2023-03-01T01:28:48;99859.49;;;18.84;46.28
55460;BME280;41326;45.302;-122.946;2023-03-01T01:31:19;99865.08;;;18.99;46.09
55460;BME280;41326;45.302;-122.946;2023-03-01T01:33:49;99869.74;;;19.10;45.91
55460;BME280;41326;45.302;-122.946;2023-03-01T01:36:19;99874.96;;;18.93;46.35
55460;BME280;41326;45.302;-122.946;2023-03-01T01:38:50;99881.47;;;18.76;46.73
55460;BME280;41326;45.302;-122.946;2023-03-01T01:41:21;99883.23;;;18.64;47.09
55460;BME280;41326;45.302;-122.946;2023-03-01T01:46:28;99891.94;;;18.82;46.70
55460;BME280;41326;45.302;-122.946;2023-03-01T01:48:53;99892.85;;;18.98;46.34
55460;BME280;41326;45.302;-122.946;2023-03-01T01:51:25;99898.47;;;19.06;46.22
55460;BME280;41326;45.302;-122.946;2023-03-01T01:53:56;99903.30;;;18.87;46.73
55460;BME280;41326;45.302;-122.946;2023-03-01T01:56:24;99904.60;;;18.71;47.20
55460;BME280;41326;45.302;-122.946;2023-03-01T01:58:54;99914.12;;;18.63;47.41
55460;BME280;41326;45.302;-122.946;2023-03-01T02:01:23;99919.02;;;18.60;47.60
55460;BME280;41326;45.302;-122.946;2023-03-01T02:03:54;99923.43;;;18.73;47.52
55460;BME280;41326;45.302;-122.946;2023-03-01T02:06:27;99929.62;;;18.90;47.07
55460;BME280;41326;45.302;-122.946;2023-03-01T02:08:55;99933.01;;;18.89;47.17
55460;BME280;41326;45.302;-122.946;2023-03-01T02:11:24;99935.49;;;18.75;47.73
55460;BME280;41326;45.302;-122.946;2023-03-01T02:13:55;99943.49;;;18.65;48.00
55460;BME280;41326;45.302;-122.946;2023-03-01T02:16:26;99950.33;;;18.53;48.35
55460;BME280;41326;45.302;-122.946;2023-03-01T02:18:56;99961.12;;;18.61;48.22
55460;BME280;41326;45.302;-122.946;2023-03-01T02:21:38;99968.37;;;18.62;48.16
55460;BME280;41326;45.302;-122.946;2023-03-01T02:23:56;99975.45;;;18.63;48.20
55460;BME280;41326;45.302;-122.946;2023-03-01T02:26:31;99982.07;;;18.59;48.35
55460;BME280;41326;45.302;-122.946;2023-03-01T02:28:57;99987.81;;;18.62;48.69
55460;BME280;41326;45.302;-122.946;2023-03-01T02:32:35;99994.90;;;18.58;50.24
55460;BME280;41326;45.302;-122.946;2023-03-01T02:35:06;99997.54;;;18.62;51.41
55460;BME280;41326;45.302;-122.946;2023-03-01T02:37:36;100002.71;;;18.67;51.90
55460;BME280;41326;45.302;-122.946;2023-03-01T02:40:10;100007.41;;;18.68;52.23
55460;BME280;41326;45.302;-122.946;2023-03-01T02:42:43;100009.81;;;18.60;51.98
55460;BME280;41326;45.302;-122.946;2023-03-01T02:45:07;100013.25;;;18.54;51.74
55460;BME280;41326;45.302;-122.946;2023-03-01T02:47:38;100013.42;;;18.57;51.35
55460;BME280;41326;45.302;-122.946;2023-03-01T02:50:12;100014.91;;;18.54;51.99
55460;BME280;41326;45.302;-122.946;2023-03-01T02:52:44;100025.55;;;18.61;52.33
55460;BME280;41326;45.302;-122.946;2023-03-01T02:55:10;100032.33;;;18.64;52.03
55460;BME280;41326;45.302;-122.946;2023-03-01T02:57:40;100030.51;;;18.66;51.41
55460;BME280;41326;45.302;-122.946;2023-03-01T03:00:12;100038.62;;;18.84;50.83
55460;BME280;41326;45.302;-122.946;2023-03-01T03:02:48;100047.23;;;19.07;49.86
55460;BME280;41326;45.302;-122.946;2023-03-01T03:05:20;100053.98;;;19.05;49.70
55460;BME280;41326;45.302;-122.946;2023-03-01T03:07:50;100059.47;;;18.90;49.99
55460;BME280;41326;45.302;-122.946;2023-03-01T03:10:24;100058.94;;;18.80;50.37
55460;BME280;41326;45.302;-122.946;2023-03-01T03:12:50;100062.82;;;18.69;50.50
55460;BME280;41326;45.302;-122.946;2023-03-01T03:15:20;100067.14;;;18.59;50.52
55460;BME280;41326;45.302;-122.946;2023-03-01T03:17:51;100071.97;;;18.52;50.84
55460;BME280;41326;45.302;-122.946;2023-03-01T03:20:23;100076.06;;;18.47;50.41
55460;BME280;41326;45.302;-122.946;2023-03-01T03:22:52;100077.81;;;18.35;50.77
55460;BME280;41326;45.302;-122.946;2023-03-01T03:25:22;100079.03;;;18.31;50.95
55460;BME280;41326;45.302;-122.946;2023-03-01T03:27:53;100084.86;;;18.26;50.88
55460;BME280;41326;45.302;-122.946;2023-03-01T03:30:24;100082.85;;;18.25;51.19
55460;BME280;41326;45.302;-122.946;2023-03-01T03:32:53;100080.74;;;18.26;50.73
55460;BME280;41326;45.302;-122.946;2023-03-01T03:35:25;100085.10;;;18.41;50.37
55460;BME280;41326;45.302;-122.946;2023-03-01T03:37:54;100083.41;;;18.65;49.70
55460;BME280;41326;45.302;-122.946;2023-03-01T03:40:24;100081.89;;;18.91;48.98
55460;BME280;41326;45.302;-122.946;2023-03-01T03:42:54;100085.57;;;19.00;48.24
55460;BME280;41326;45.302;-122.946;2023-03-01T03:45:25;100088.77;;;18.90;48.62
55460;BME280;41326;45.302;-122.946;2023-03-01T03:47:55;100089.59;;;18.76;48.92
55460;BME280;41326;45.302;-122.946;2023-03-01T03:50:25;100089.28;;;18.66;49.12
55460;BME280;41326;45.302;-122.946;2023-03-01T03:52:55;100091.29;;;18.56;49.44
55460;BME280;41326;45.302;-122.946;2023-03-01T03:55:26;100091.71;;;18.46;49.71
55460;BME280;41326;45.302;-122.946;2023-03-01T03:57:57;100092.30;;;18.42;49.78
55460;BME280;41326;45.302;-122.946;2023-03-01T04:00:27;100096.82;;;18.35;50.03
55460;BME280;41326;45.302;-122.946;2023-03-01T04:02:57;100097.96;;;18.43;49.70
55460;BME280;41326;45.302;-122.946;2023-03-01T04:05:27;100102.58;;;18.65;49.26
55460;BME280;41326;45.302;-122.946;2023-03-01T04:07:58;100108.58;;;18.90;48.42
55460;BME280;41326;45.302;-122.946;2023-03-01T04:10:29;100116.10;;;18.85;48.54
55460;BME280;41326;45.302;-122.946;2023-03-01T04:12:59;100125.54;;;18.75;48.76
55460;BME280;41326;45.302;-122.946;2023-03-01T04:15:31;100130.09;;;18.65;48.96
55460;BME280;41326;45.302;-122.946;2023-03-01T04:18:00;100136.70;;;18.60;49.13
55460;BME280;41326;45.302;-122.946;2023-03-01T04:20:32;100136.46;;;18.51;49.33
55460;BME280;41326;45.302;-122.946;2023-03-01T04:23:03;100142.78;;;18.44;49.47
55460;BME280;41326;45.302;-122.946;2023-03-01T04:25:30;100150.20;;;18.39;49.55
55460;BME280;41326;45.302;-122.946;2023-03-01T04:28:01;100152.67;;;18.37;49.48
55460;BME280;41326;45.302;-122.946;2023-03-01T04:30:31;100150.33;;;18.46;49.40
55460;BME280;41326;45.302;-122.946;2023-03-01T04:33:02;100152.43;;;18.65;48.86
55460;BME280;41326;45.302;-122.946;2023-03-01T04:35:32;100162.60;;;18.90;48.21
55460;BME280;41326;45.302;-122.946;2023-03-01T04:38:02;100167.96;;;18.91;47.89
55460;BME280;41326;45.302;-122.946;2023-03-01T04:40:33;100173.58;;;18.82;48.31
55460;BME280;41326;45.302;-122.946;2023-03-01T04:43:03;100176.87;;;18.71;49.27
55460;BME280;41326;45.302;-122.946;2023-03-01T04:45:33;100178.39;;;18.67;49.90
55460;BME280;41326;45.302;-122.946;2023-03-01T04:48:03;100179.59;;;18.60;51.08
55460;BME280;41326;45.302;-122.946;2023-03-01T04:50:33;100183.33;;;18.54;50.72
55460;BME280;41326;45.302;-122.946;2023-03-01T04:53:03;100184.07;;;18.50;50.89
55460;BME280;41326;45.302;-122.946;2023-03-01T04:55:34;100185.49;;;18.39;51.38
55460;BME280;41326;45.302;-122.946;2023-03-01T04:58:04;100187.06;;;18.39;51.00
55460;BME280;41326;45.302;-122.946;2023-03-01T05:00:35;100192.16;;;18.52;50.59
55460;BME280;41326;45.302;-122.946;2023-03-01T05:03:06;100198.86;;;18.71;49.52
55460;BME280;41326;45.302;-122.946;2023-03-01T05:05:37;100207.41;;;18.67;49.72
55460;BME280;41326;45.302;-122.946;2023-03-01T05:08:07;100207.75;;;18.60;50.17
55460;BME280;41326;45.302;-122.946;2023-03-01T05:10:36;100210.93;;;18.44;50.51
55460;BME280;41326;45.302;-122.946;2023-03-01T05:13:07;100217.16;;;18.37;50.66
55460;BME280;41326;45.302;-122.946;2023-03-01T05:15:37;100220.84;;;18.28;51.10
55460;BME280;41326;45.302;-122.946;2023-03-01T05:18:07;100219.51;;;18.13;51.47
55460;BME280;41326;45.302;-122.946;2023-03-01T05:20:37;100225.53;;;18.04;51.56
55460;BME280;41326;45.302;-122.946;2023-03-01T05:23:07;100229.96;;;17.98;51.75
55460;BME280;41326;45.302;-122.946;2023-03-01T05:25:38;100230.33;;;17.94;51.81
55460;BME280;41326;45.302;-122.946;2023-03-01T05:28:10;100236.24;;;17.92;51.84
55460;BME280;41326;45.302;-122.946;2023-03-01T05:30:39;100243.41;;;17.87;52.19
55460;BME280;41326;45.302;-122.946;2023-03-01T05:33:09;100251.28;;;17.83;52.20
55460;BME280;41326;45.302;-122.946;2023-03-01T05:35:39;100256.99;;;17.78;52.30
55460;BME280;41326;45.302;-122.946;2023-03-01T05:38:09;100257.40;;;17.77;52.18
55460;BME280;41326;45.302;-122.946;2023-03-01T05:40:41;100259.50;;;17.73;52.02
55460;BME280;41326;45.302;-122.946;2023-03-01T05:43:11;100263.51;;;17.72;52.03
55460;BME280;41326;45.302;-122.946;2023-03-01T05:45:42;100268.83;;;17.71;52.09
55460;BME280;41326;45.302;-122.946;2023-03-01T05:48:12;100271.27;;;17.72;52.07
55460;BME280;41326;45.302;-122.946;2023-03-01T05:50:44;100278.42;;;17.69;52.01
55460;BME280;41326;45.302;-122.946;2023-03-01T05:53:13;100284.33;;;17.65;52.23
55460;BME280;41326;45.302;-122.946;2023-03-01T05:55:43;100287.90;;;17.65;52.14
55460;BME280;41326;45.302;-122.946;2023-03-01T05:58:16;100293.68;;;17.64;51.97
55460;BME280;41326;45.302;-122.946;2023-03-01T06:00:43;100298.58;;;17.62;51.93
55460;BME280;41326;45.302;-122.946;2023-03-01T06:03:16;100300.20;;;17.59;51.80
55460;BME280;41326;45.302;-122.946;2023-03-01T06:05:44;100304.80;;;17.57;52.11
55460;BME280;41326;45.302;-122.946;2023-03-01T06:08:16;100307.24;;;17.53;52.33
55460;BME280;41326;45.302;-122.946;2023-03-01T06:10:45;100308.71;;;17.50;52.33
55460;BME280;41326;45.302;-122.946;2023-03-01T06:13:16;100314.03;;;17.50;52.27
55460;BME280;41326;45.302;-122.946;2023-03-01T06:15:45;100312.34;;;17.47;52.44
55460;BME280;41326;45.302;-122.946;2023-03-01T06:18:16;100311.48;;;17.42;52.49
55460;BME280;41326;45.302;-122.946;2023-03-01T06:23:17;100315.12;;;17.39;52.32
55460;BME280;41326;45.302;-122.946;2023-03-01T06:25:47;100322.49;;;17.35;52.45
55460;BME280;41326;45.302;-122.946;2023-03-01T06:28:18;100324.29;;;17.35;52.51
55460;BME280;41326;45.302;-122.946;2023-03-01T06:30:48;100330.39;;;17.34;52.41
55460;BME280;41326;45.302;-122.946;2023-03-01T06:33:19;100340.11;;;17.33;52.45
55460;BME280;41326;45.302;-122.946;2023-03-01T06:35:48;100345.24;;;17.32;52.39
55460;BME280;41326;45.302;-122.946;2023-03-01T06:38:19;100351.35;;;17.29;52.27
55460;BME280;41326;45.302;-122.946;2023-03-01T06:40:51;100355.71;;;17.28;52.17
55460;BME280;41326;45.302;-122.946;2023-03-01T06:43:20;100366.53;;;17.24;52.31
55460;BME280;41326;45.302;-122.946;2023-03-01T06:45:50;100373.23;;;17.23;52.38
55460;BME280;41326;45.302;-122.946;2023-03-01T06:48:21;100374.57;;;17.25;52.28
55460;BME280;41326;45.302;-122.946;2023-03-01T06:50:51;100378.65;;;17.21;52.27
55460;BME280;41326;45.302;-122.946;2023-03-01T06:53:21;100383.51;;;17.17;52.24
55460;BME280;41326;45.302;-122.946;2023-03-01T06:55:54;100394.90;;;17.15;52.33
55460;BME280;41326;45.302;-122.946;2023-03-01T06:58:22;100399.62;;;17.16;52.19
55460;BME280;41326;45.302;-122.946;2023-03-01T07:00:52;100410.97;;;17.17;52.06
55460;BME280;41326;45.302;-122.946;2023-03-01T07:03:22;100423.46;;;17.15;52.13
55460;BME280;41326;45.302;-122.946;2023-03-01T07:05:54;100427.45;;;17.10;52.21
55460;BME280;41326;45.302;-122.946;2023-03-01T07:08:22;100435.33;;;17.05;52.36
55460;BME280;41326;45.302;-122.946;2023-03-01T07:10:55;100439.85;;;17.04;52.34
55460;BME280;41326;45.302;-122.946;2023-03-01T07:13:24;100447.38;;;16.99;52.42
55460;BME280;41326;45.302;-122.946;2023-03-01T07:15:54;100449.89;;;16.98;52.44
55460;BME280;41326;45.302;-122.946;2023-03-01T07:18:24;100456.87;;;16.97;52.35
55460;BME280;41326;45.302;-122.946;2023-03-01T07:20:54;100464.71;;;16.97;52.20
55460;BME280;41326;45.302;-122.946;2023-03-01T07:23:25;100463.01;;;16.96;52.30
55460;BME280;41326;45.302;-122.946;2023-03-01T07:25:58;100464.29;;;16.94;52.44
55460;BME280;41326;45.302;-122.946;2023-03-01T07:28:26;100479.68;;;16.88;52.53
55460;BME280;41326;45.302;-122.946;2023-03-01T07:31:00;100486.84;;;16.84;52.54
55460;BME280;41326;45.302;-122.946;2023-03-01T07:33:27;100497.80;;;16.81;52.61
55460;BME280;41326;45.302;-122.946;2023-03-01T07:36:02;100506.47;;;16.79;52.67
55460;BME280;41326;45.302;-122.946;2023-03-01T07:38:28;100516.54;;;16.79;52.51
55460;BME280;41326;45.302;-122.946;2023-03-01T07:40:59;100515.57;;;16.79;52.60
55460;BME280;41326;45.302;-122.946;2023-03-01T07:43:29;100521.09;;;16.77;52.58
55460;BME280;41326;45.302;-122.946;2023-03-01T07:46:00;100518.10;;;16.72;52.76
55460;BME280;41326;45.302;-122.946;2023-03-01T07:48:30;100526.80;;;16.75;52.55
55460;BME280;41326;45.302;-122.946;2023-03-01T07:51:04;100527.56;;;16.74;52.57
55460;BME280;41326;45.302;-122.946;2023-03-01T07:53:31;100531.70;;;16.68;52.75
55460;BME280;41326;45.302;-122.946;2023-03-01T07:56:06;100532.57;;;16.68;52.54
55460;BME280;41326;45.302;-122.946;2023-03-01T07:58:31;100536.13;;;16.66;52.57
55460;BME280;41326;45.302;-122.946;2023-03-01T08:01:02;100541.71;;;16.64;52.48
55460;BME280;41326;45.302;-122.946;2023-03-01T08:03:32;100548.04;;;16.63;52.51
55460;BME280;41326;45.302;-122.946;2023-03-01T08:06:07;100551.18;;;16.61;52.66
55460;BME280;41326;45.302;-122.946;2023-03-01T08:08:33;100552.84;;;16.58;52.67
55460;BME280;41326;45.302;-122.946;2023-03-01T08:11:04;100563.65;;;16.57;52.85
55460;BME280;41326;45.302;-122.946;2023-03-01T08:13:34;100561.90;;;16.52;53.00
55460;BME280;41326;45.302;-122.946;2023-03-01T08:16:09;100566.84;;;16.53;52.71
55460;BME280;41326;45.302;-122.946;2023-03-01T08:18:34;100566.64;;;16.50;52.72
55460;BME280;41326;45.302;-122.946;2023-03-01T08:21:08;100568.23;;;16.48;52.95
55460;BME280;41326;45.302;-122.946;2023-03-01T08:23:36;100570.78;;;16.46;53.10
55460;BME280;41326;45.302;-122.946;2023-03-01T08:26:10;100568.84;;;16.41;53.29
55460;BME280;41326;45.302;-122.946;2023-03-01T08:28:36;100573.08;;;16.42;53.04
55460;BME280;41326;45.302;-122.946;2023-03-01T08:33:36;100576.88;;;16.38;53.36
55460;BME280;41326;45.302;-122.946;2023-03-01T08:36:09;100576.59;;;16.36;53.40
55460;BME280;41326;45.302;-122.946;2023-03-01T08:38:37;100588.14;;;16.35;53.22
55460;BME280;41326;45.302;-122.946;2023-03-01T08:41:08;100586.52;;;16.31;53.30
55460;BME280;41326;45.302;-122.946;2023-03-01T08:43:37;100589.06;;;16.29;53.45
55460;BME280;41326;45.302;-122.946;2023-03-01T08:46:08;100589.65;;;16.29;53.42
55460;BME280;41326;45.302;-122.946;2023-03-01T08:48:38;100588.20;;;16.30;53.26
55460;BME280;41326;45.302;-122.946;2023-03-01T08:51:13;100586.25;;;16.26;53.34
55460;BME280;41326;45.302;-122.946;2023-03-01T08:53:39;100584.28;;;16.27;53.37
55460;BME280;41326;45.302;-122.946;2023-03-01T08:56:09;100589.40;;;16.25;53.34
55460;BME280;41326;45.302;-122.946;2023-03-01T08:58:42;100595.14;;;16.24;53.46
55460;BME280;41326;45.302;-122.946;2023-03-01T09:01:14;100585.55;;;16.19;53.65
55460;BME280;41326;45.302;-122.946;2023-03-01T09:03:41;100579.18;;;16.15;53.73
55460;BME280;41326;45.302;-122.946;2023-03-01T09:06:12;100585.80;;;16.14;53.86
55460;BME280;41326;45.302;-122.946;2023-03-01T09:08:43;100596.60;;;16.10;53.88
55460;BME280;41326;45.302;-122.946;2023-03-01T09:11:13;100603.23;;;16.08;53.91
55460;BME280;41326;45.302;-122.946;2023-03-01T09:13:43;100599.08;;;16.06;54.03
55460;BME280;41326;45.302;-122.946;2023-03-01T09:16:15;100600.05;;;16.03;54.16
55460;BME280;41326;45.302;-122.946;2023-03-01T09:18:43;100612.73;;;16.07;53.90
55460;BME280;41326;45.302;-122.946;2023-03-01T09:21:15;100610.31;;;16.04;53.85
55460;BME280;41326;45.302;-122.946;2023-03-01T09:23:45;100616.91;;;15.99;53.85
55460;BME280;41326;45.302;-122.946;2023-03-01T09:26:15;100627.68;;;15.99;54.13
55460;BME280;41326;45.302;-122.946;2023-03-01T09:28:44;100627.36;;;15.98;54.13
55460;BME280;41326;45.302;-122.946;2023-03-01T09:31:15;100627.64;;;15.94;54.39
55460;BME280;41326;45.302;-122.946;2023-03-01T09:33:46;100629.40;;;15.93;54.33
55460;BME280;41326;45.302;-122.946;2023-03-01T09:36:18;100627.04;;;15.93;54.27
55460;BME280;41326;45.302;-122.946;2023-03-01T09:38:46;100627.51;;;15.94;54.10
55460;BME280;41326;45.302;-122.946;2023-03-01T09:41:26;100627.43;;;15.94;53.96
55460;BME280;41326;45.302;-122.946;2023-03-01T09:43:50;100631.52;;;15.89;54.05
55460;BME280;41326;45.302;-122.946;2023-03-01T09:46:19;100643.08;;;15.87;54.24
55460;BME280;41326;45.302;-122.946;2023-03-01T09:48:49;100644.57;;;15.86;54.31
55460;BME280;41326;45.302;-122.946;2023-03-01T09:51:25;100651.29;;;15.81;54.39
55460;BME280;41326;45.302;-122.946;2023-03-01T09:53:48;100672.23;;;15.81;54.43
55460;BME280;41326;45.302;-122.946;2023-03-01T09:56:24;100686.61;;;15.81;54.32
55460;BME280;41326;45.302;-122.946;2023-03-01T09:58:54;100692.36;;;15.80;54.30
55460;BME280;41326;45.302;-122.946;2023-03-01T10:01:28;100698.07;;;15.77;54.36
55460;BME280;41326;45.302;-122.946;2023-03-01T10:03:58;100701.10;;;15.79;54.16
55460;BME280;41326;45.302;-122.946;2023-03-01T10:06:21;100692.98;;;15.75;54.30
55460;BME280;41326;45.302;-122.946;2023-03-01T10:08:57;100673.79;;;15.75;54.30
55460;BME280;41326;45.302;-122.946;2023-03-01T10:11:28;100676.45;;;15.71;54.29
55460;BME280;41326;45.302;-122.946;2023-03-01T10:13:56;100677.31;;;15.66;54.80
55460;BME280;41326;45.302;-122.946;2023-03-01T10:16:27;100674.57;;;15.63;55.04
55460;BME280;41326;45.302;-122.946;2023-03-01T10:18:55;100685.63;;;15.63;54.93
55460;BME280;41326;45.302;-122.946;2023-03-01T10:21:23;100687.38;;;15.61;54.81
55460;BME280;41326;45.302;-122.946;2023-03-01T10:23:56;100688.22;;;15.59;54.87
55460;BME280;41326;45.302;-122.946;2023-03-01T10:26:36;100686.77;;;15.56;54.89
55460;BME280;41326;45.302;-122.946;2023-03-01T10:29:00;100696.79;;;15.57;54.86
55460;BME280;41326;45.302;-122.946;2023-03-01T10:31:27;100698.43;;;15.55;54.90
55460;BME280;41326;45.302;-122.946;2023-03-01T10:33:54;100715.52;;;15.52;54.83
55460;BME280;41326;45.302;-122.946;2023-03-01T10:36:24;100713.94;;;15.49;55.05
55460;BME280;41326;45.302;-122.946;2023-03-01T10:38:56;100723.57;;;15.51;54.81
55460;BME280;41326;45.302;-122.946;2023-03-01T10:41:27;100725.54;;;15.49;54.87
55460;BME280;41326;45.302;-122.946;2023-03-01T10:43:57;100735.80;;;15.44;54.84
55460;BME280;41326;45.302;-122.946;2023-03-01T10:46:32;100743.74;;;15.44;54.78
55460;BME280;41326;45.302;-122.946;2023-03-01T10:51:27;100764.56;;;15.41;54.84
55460;BME280;41326;45.302;-122.946;2023-03-01T10:53:57;100773.83;;;15.41;54.75
55460;BME280;41326;45.302;-122.946;2023-03-01T10:56:27;100779.71;;;15.40;54.78
55460;BME280;41326;45.302;-122.946;2023-03-01T10:59:03;100788.33;;;15.39;54.75
55460;BME280;41326;45.302;-122.946;2023-03-01T11:02:36;100793.28;;;15.37;54.72
55460;BME280;41326;45.302;-122.946;2023-03-01T11:05:17;100798.54;;;15.33;54.80
55460;BME280;41326;45.302;-122.946;2023-03-01T11:07:48;100800.01;;;15.31;54.85
55460;BME280;41326;45.302;-122.946;2023-03-01T11:10:15;100799.96;;;15.27;54.78
55460;BME280;41326;45.302;-122.946;2023-03-01T11:12:39;100801.39;;;15.26;54.69
55460;BME280;41326;45.302;-122.946;2023-03-01T11:17:42;100815.67;;;15.24;54.67
55460;BME280;41326;45.302;-122.946;2023-03-01T11:20:18;100820.00;;;15.22;54.79
55460;BME280;41326;45.302;-122.946;2023-03-01T11:22:42;100819.41;;;15.20;54.88
55460;BME280;41326;45.302;-122.946;2023-03-01T11:25:16;100827.09;;;15.18;54.76
55460;BME280;41326;45.302;-122.946;2023-03-01T11:27:44;100833.35;;;15.16;54.92
55460;BME280;41326;45.302;-122.946;2023-03-01T11:30:20;100833.67;;;15.13;54.90
55460;BME280;41326;45.302;-122.946;2023-03-01T11:32:47;100834.51;;;15.10;55.04
55460;BME280;41326;45.302;-122.946;2023-03-01T11:35:17;100837.31;;;15.06;55.09
55460;BME280;41326;45.302;-122.946;2023-03-01T11:37:50;100840.10;;;15.07;55.01
55460;BME280;41326;45.302;-122.946;2023-03-01T11:42:58;100836.57;;;15.08;54.96
55460;BME280;41326;45.302;-122.946;2023-03-01T11:45:18;100835.88;;;15.06;54.85
55460;BME280;41326;45.302;-122.946;2023-03-01T11:47:58;100837.62;;;15.03;54.91
55460;BME280;41326;45.302;-122.946;2023-03-01T11:50:26;100838.84;;;15.01;54.92
55460;BME280;41326;45.302;-122.946;2023-03-01T11:53:00;100846.42;;;14.99;54.98
55460;BME280;41326;45.302;-122.946;2023-03-01T11:55:30;100847.68;;;15.00;54.89
55460;BME280;41326;45.302;-122.946;2023-03-01T11:58:02;100844.72;;;14.98;54.89
55460;BME280;41326;45.302;-122.946;2023-03-01T12:07:57;100870.03;;;14.91;54.86
55460;BME280;41326;45.302;-122.946;2023-03-01T12:10:26;100878.81;;;14.87;54.95
55460;BME280;41326;45.302;-122.946;2023-03-01T12:13:02;100886.30;;;14.84;54.96
55460;BME280;41326;45.302;-122.946;2023-03-01T12:15:30;100897.93;;;14.83;54.93
55460;BME280;41326;45.302;-122.946;2023-03-01T12:18:07;100900.86;;;14.87;54.79
55460;BME280;41326;45.302;-122.946;2023-03-01T12:20:29;100903.30;;;14.83;54.65
55460;BME280;41326;45.302;-122.946;2023-03-01T12:23:07;100913.18;;;14.86;54.57
55460;BME280;41326;45.302;-122.946;2023-03-01T12:25:28;100917.91;;;14.81;54.68
55460;BME280;41326;45.302;-122.946;2023-03-01T12:30:35;100932.18;;;14.75;54.81
55460;BME280;41326;45.302;-122.946;2023-03-01T12:33:04;100937.56;;;14.74;54.66
55460;BME280;41326;45.302;-122.946;2023-03-01T12:35:34;100950.31;;;14.75;54.64
55460;BME280;41326;45.302;-122.946;2023-03-01T12:38:02;100955.63;;;14.78;54.34
55460;BME280;41326;45.302;-122.946;2023-03-01T12:40:36;100959.54;;;14.93;53.71
55460;BME280;41326;45.302;-122.946;2023-03-01T12:43:06;100967.78;;;15.14;52.63
55460;BME280;41326;45.302;-122.946;2023-03-01T12:45:34;100983.15;;;15.17;52.81
55460;BME280;41326;45.302;-122.946;2023-03-01T12:48:08;100988.35;;;15.13;52.83
55460;BME280;41326;45.302;-122.946;2023-03-01T12:50:37;101003.42;;;15.06;53.05
55460;BME280;41326;45.302;-122.946;2023-03-01T12:52:57;101014.01;;;14.97;53.27
55460;BME280;41326;45.302;-122.946;2023-03-01T12:55:33;101020.60;;;14.91;53.51
55460;BME280;41326;45.302;-122.946;2023-03-01T12:58:05;101020.50;;;14.88;53.71
55460;BME280;41326;45.302;-122.946;2023-03-01T13:00:34;101018.32;;;14.83;53.92
55460;BME280;41326;45.302;-122.946;2023-03-01T13:03:04;101019.63;;;14.83;53.94
55460;BME280;41326;45.302;-122.946;2023-03-01T13:05:40;101019.94;;;14.79;54.00